sensor_id;sensor_type;location;lat;lon;timestamp;temperature;humidity
18670;DHT22;9464;44.918;9.670;2023-03-16T00:00:49;9.80;99.90
18670;DHT22;9464;44.918;9.670;2023-03-16T00:03:17;9.80;99.90
18670;DHT22;9464;44.918;9.670;2023-03-16T00:05:46;9.80;99.90
18670;DHT22;9464;44.918;9.670;2023-03-16T00:08:16;9.70;99.90
18670;DHT22;9464;44.918;9.670;2023-03-16T00:10:45;9.70;99.90
18670;DHT22;9464;44.918;9.670;2023-03-16T00:13:14;9.70;99.90
18670;DHT22;9464;44.918;9.670;2023-03-16T00:15:49;9.70;99.90
18670;DHT22;9464;44.918;9.670;2023-03-16T00:18:17;9.60;99.90
18670;DHT22;9464;44.918;9.670;2023-03-16T00:20:49;9.60;99.90
18670;DHT22;9464;44.918;9.670;2023-03-16T00:23:20;9.60;99.90
18670;DHT22;9464;44.918;9.670;2023-03-16T00:25:53;9.50;99.90
18670;DHT22;9464;44.918;9.670;2023-03-16T00:28:22;9.50;99.90
18670;DHT22;9464;44.918;9.670;2023-03-16T00:30:50;9.40;99.90
18670;DHT22;9464;44.918;9.670;2023-03-16T00:33:18;9.40;99.90
18670;DHT22;9464;44.918;9.670;2023-03-16T00:35:47;9.40;99.90
18670;DHT22;9464;44.918;9.670;2023-03-16T00:38:16;9.30;99.90
18670;DHT22;9464;44.918;9.670;2023-03-16T00:40:46;9.30;99.90
18670;DHT22;9464;44.918;9.670;2023-03-16T00:43:18;9.30;99.90
18670;DHT22;9464;44.918;9.670;2023-03-16T00:45:50;9.30;99.90
18670;DHT22;9464;44.918;9.670;2023-03-16T00:48:29;9.20;99.90
18670;DHT22;9464;44.918;9.670;2023-03-16T00:51:01;9.20;99.90
18670;DHT22;9464;44.918;9.670;2023-03-16T00:53:32;9.10;99.90
18670;DHT22;9464;44.918;9.670;2023-03-16T00:56:04;9.10;99.90
18670;DHT22;9464;44.918;9.670;2023-03-16T00:58:33;9.10;99.90
18670;DHT22;9464;44.918;9.670;2023-03-16T01:01:03;9.10;99.90
18670;DHT22;9464;44.918;9.670;2023-03-16T01:03:32;9.10;99.90
18670;DHT22;9464;44.918;9.670;2023-03-16T01:06:03;9.10;99.90
18670;DHT22;9464;44.918;9.670;2023-03-16T01:08:32;9.10;99.90
18670;DHT22;9464;44.918;9.670;2023-03-16T01:11:06;9.10;99.90
18670;DHT22;9464;44.918;9.670;2023-03-16T01:13:36;9.00;99.90
18670;DHT22;9464;44.918;9.670;2023-03-16T01:16:05;9.00;99.90
18670;DHT22;9464;44.918;9.670;2023-03-16T01:18:34;9.10;99.90
18670;DHT22;9464;44.918;9.670;2023-03-16T01:21:03;9.00;99.90
18670;DHT22;9464;44.918;9.670;2023-03-16T01:23:32;9.10;99.90
18670;DHT22;9464;44.918;9.670;2023-03-16T01:26:00;9.00;99.90
18670;DHT22;9464;44.918;9.670;2023-03-16T01:28:31;9.10;99.90
18670;DHT22;9464;44.918;9.670;2023-03-16T01:31:01;9.10;99.90
18670;DHT22;9464;44.918;9.670;2023-03-16T01:33:30;9.00;99.90
18670;DHT22;9464;44.918;9.670;2023-03-16T01:36:02;9.10;99.90
18670;DHT22;9464;44.918;9.670;2023-03-16T01:38:31;9.00;99.90
18670;DHT22;9464;44.918;9.670;2023-03-16T01:41:00;9.00;99.90
18670;DHT22;9464;44.918;9.670;2023-03-16T01:43:31;9.00;99.90
18670;DHT22;9464;44.918;9.670;2023-03-16T01:46:22;9.00;99.90
18670;DHT22;9464;44.918;9.670;2023-03-16T01:49:04;9.00;99.90
18670;DHT22;9464;44.918;9.670;2023-03-16T01:51:40;9.00;99.90
18670;DHT22;9464;44.918;9.670;2023-03-16T01:54:15;9.00;99.90
18670;DHT22;9464;44.918;9.670;2023-03-16T01:56:50;9.00;99.90
18670;DHT22;9464;44.918;9.670;2023-03-16T01:59:26;8.90;99.90
18670;DHT22;9464;44.918;9.670;2023-03-16T02:01:56;8.90;99.90
18670;DHT22;9464;44.918;9.670;2023-03-16T02:04:47;8.90;99.90
18670;DHT22;9464;44.918;9.670;2023-03-16T02:07:18;8.80;99.90
18670;DHT22;9464;44.918;9.670;2023-03-16T02:09:52;8.80;99.90
18670;DHT22;9464;44.918;9.670;2023-03-16T02:12:21;8.80;99.90
18670;DHT22;9464;44.918;9.670;2023-03-16T02:14:51;8.80;99.90
18670;DHT22;9464;44.918;9.670;2023-03-16T02:17:21;8.90;99.90
18670;DHT22;9464;44.918;9.670;2023-03-16T02:19:58;8.90;99.90
18670;DHT22;9464;44.918;9.670;2023-03-16T02:22:33;8.90;99.90
18670;DHT22;9464;44.918;9.670;2023-03-16T02:25:02;8.90;99.90
18670;DHT22;9464;44.918;9.670;2023-03-16T02:27:38;9.00;99.90
18670;DHT22;9464;44.918;9.670;2023-03-16T02:30:10;9.00;99.90
18670;DHT22;9464;44.918;9.670;2023-03-16T02:32:40;9.00;99.90
18670;DHT22;9464;44.918;9.670;2023-03-16T02:35:09;9.00;99.90
18670;DHT22;9464;44.918;9.670;2023-03-16T02:37:38;9.00;99.90
18670;DHT22;9464;44.918;9.670;2023-03-16T02:40:20;9.00;99.90
18670;DHT22;9464;44.918;9.670;2023-03-16T02:42:54;9.00;99.90
18670;DHT22;9464;44.918;9.670;2023-03-16T02:45:28;8.90;99.90
18670;DHT22;9464;44.918;9.670;2023-03-16T02:48:01;9.00;99.90
18670;DHT22;9464;44.918;9.670;2023-03-16T02:50:30;8.90;99.90
18670;DHT22;9464;44.918;9.670;2023-03-16T02:52:59;9.00;99.90
18670;DHT22;9464;44.918;9.670;2023-03-16T02:55:27;8.90;99.90
18670;DHT22;9464;44.918;9.670;2023-03-16T02:57:55;8.90;99.90
18670;DHT22;9464;44.918;9.670;2023-03-16T03:00:25;8.80;99.90
18670;DHT22;9464;44.918;9.670;2023-03-16T03:02:53;8.80;99.90
18670;DHT22;9464;44.918;9.670;2023-03-16T03:05:22;8.80;99.90
18670;DHT22;9464;44.918;9.670;2023-03-16T03:07:50;8.80;99.90
18670;DHT22;9464;44.918;9.670;2023-03-16T03:10:18;8.70;99.90
18670;DHT22;9464;44.918;9.670;2023-03-16T03:12:48;8.70;99.90
18670;DHT22;9464;44.918;9.670;2023-03-16T03:15:16;8.70;99.90
18670;DHT22;9464;44.918;9.670;2023-03-16T03:17:46;8.70;99.90
18670;DHT22;9464;44.918;9.670;2023-03-16T03:20:15;8.70;99.90
18670;DHT22;9464;44.918;9.670;2023-03-16T03:22:45;8.60;99.90
18670;DHT22;9464;44.918;9.670;2023-03-16T03:25:15;8.60;99.90
18670;DHT22;9464;44.918;9.670;2023-03-16T03:27:45;8.60;99.90
18670;DHT22;9464;44.918;9.670;2023-03-16T03:30:15;8.50;99.90
18670;DHT22;9464;44.918;9.670;2023-03-16T03:32:46;8.50;99.90
18670;DHT22;9464;44.918;9.670;2023-03-16T03:35:14;8.50;99.90
18670;DHT22;9464;44.918;9.670;2023-03-16T03:37:43;8.50;99.90
18670;DHT22;9464;44.918;9.670;2023-03-16T03:40:14;8.50;99.90
18670;DHT22;9464;44.918;9.670;2023-03-16T03:42:43;8.40;99.90
18670;DHT22;9464;44.918;9.670;2023-03-16T03:45:12;8.40;99.90
18670;DHT22;9464;44.918;9.670;2023-03-16T03:47:41;8.40;99.90
18670;DHT22;9464;44.918;9.670;2023-03-16T03:50:12;8.40;99.90
18670;DHT22;9464;44.918;9.670;2023-03-16T03:52:41;8.30;99.90
18670;DHT22;9464;44.918;9.670;2023-03-16T03:55:09;8.30;99.90
18670;DHT22;9464;44.918;9.670;2023-03-16T03:57:38;8.30;99.90
18670;DHT22;9464;44.918;9.670;2023-03-16T04:00:08;8.30;99.90
18670;DHT22;9464;44.918;9.670;2023-03-16T04:02:37;8.30;99.90
18670;DHT22;9464;44.918;9.670;2023-03-16T04:05:06;8.30;99.90
18670;DHT22;9464;44.918;9.670;2023-03-16T04:07:36;8.30;99.90
18670;DHT22;9464;44.918;9.670;2023-03-16T04:10:05;8.30;99.90
18670;DHT22;9464;44.918;9.670;2023-03-16T04:12:33;8.20;99.90
18670;DHT22;9464;44.918;9.670;2023-03-16T04:15:02;8.30;99.90
18670;DHT22;9464;44.918;9.670;2023-03-16T04:17:30;8.20;99.90
18670;DHT22;9464;44.918;9.670;2023-03-16T04:20:00;8.20;99.90
18670;DHT22;9464;44.918;9.670;2023-03-16T04:22:31;8.20;99.90
18670;DHT22;9464;44.918;9.670;2023-03-16T04:25:01;8.20;99.90
18670;DHT22;9464;44.918;9.670;2023-03-16T04:27:30;8.10;99.90
18670;DHT22;9464;44.918;9.670;2023-03-16T04:30:02;8.10;99.90
18670;DHT22;9464;44.918;9.670;2023-03-16T04:32:32;8.10;99.90
18670;DHT22;9464;44.918;9.670;2023-03-16T04:35:00;8.10;99.90
18670;DHT22;9464;44.918;9.670;2023-03-16T04:37:28;8.10;99.90
18670;DHT22;9464;44.918;9.670;2023-03-16T04:39:56;8.10;99.90
18670;DHT22;9464;44.918;9.670;2023-03-16T04:42:26;8.00;99.90
18670;DHT22;9464;44.918;9.670;2023-03-16T04:44:54;8.00;99.90
18670;DHT22;9464;44.918;9.670;2023-03-16T04:47:22;8.00;99.90
18670;DHT22;9464;44.918;9.670;2023-03-16T04:49:50;8.00;99.90
18670;DHT22;9464;44.918;9.670;2023-03-16T04:52:19;8.00;99.90
18670;DHT22;9464;44.918;9.670;2023-03-16T04:54:47;8.00;99.90
18670;DHT22;9464;44.918;9.670;2023-03-16T04:57:15;8.00;99.90
18670;DHT22;9464;44.918;9.670;2023-03-16T04:59:46;8.00;99.90
18670;DHT22;9464;44.918;9.670;2023-03-16T05:02:14;8.00;99.90
18670;DHT22;9464;44.918;9.670;2023-03-16T05:04:45;8.00;99.90
18670;DHT22;9464;44.918;9.670;2023-03-16T05:07:13;8.00;99.90
18670;DHT22;9464;44.918;9.670;2023-03-16T05:09:41;8.00;99.90
18670;DHT22;9464;44.918;9.670;2023-03-16T05:12:10;8.00;99.90
18670;DHT22;9464;44.918;9.670;2023-03-16T05:14:38;8.00;99.90
18670;DHT22;9464;44.918;9.670;2023-03-16T05:17:08;7.90;99.90
18670;DHT22;9464;44.918;9.670;2023-03-16T05:19:40;8.00;99.90
18670;DHT22;9464;44.918;9.670;2023-03-16T05:22:09;7.90;99.90
18670;DHT22;9464;44.918;9.670;2023-03-16T05:24:37;7.90;99.90
18670;DHT22;9464;44.918;9.670;2023-03-16T05:27:06;7.80;99.90
18670;DHT22;9464;44.918;9.670;2023-03-16T05:29:34;7.80;99.90
18670;DHT22;9464;44.918;9.670;2023-03-16T05:32:02;7.80;99.90
18670;DHT22;9464;44.918;9.670;2023-03-16T05:34:33;7.80;99.90
18670;DHT22;9464;44.918;9.670;2023-03-16T05:37:01;7.80;99.90
18670;DHT22;9464;44.918;9.670;2023-03-16T05:39:30;7.80;99.90
18670;DHT22;9464;44.918;9.670;2023-03-16T05:41:58;7.70;99.90
18670;DHT22;9464;44.918;9.670;2023-03-16T05:44:26;7.70;99.90
18670;DHT22;9464;44.918;9.670;2023-03-16T05:46:55;7.80;99.90
18670;DHT22;9464;44.918;9.670;2023-03-16T05:49:23;7.80;99.90
18670;DHT22;9464;44.918;9.670;2023-03-16T05:51:53;7.80;99.90
18670;DHT22;9464;44.918;9.670;2023-03-16T05:54:21;7.80;99.90
18670;DHT22;9464;44.918;9.670;2023-03-16T05:56:50;7.90;99.90
18670;DHT22;9464;44.918;9.670;2023-03-16T05:59:18;7.90;99.90
18670;DHT22;9464;44.918;9.670;2023-03-16T06:01:46;7.90;99.90
18670;DHT22;9464;44.918;9.670;2023-03-16T06:04:15;7.90;99.90
18670;DHT22;9464;44.918;9.670;2023-03-16T06:06:44;8.00;99.90
18670;DHT22;9464;44.918;9.670;2023-03-16T06:09:13;8.00;99.90
18670;DHT22;9464;44.918;9.670;2023-03-16T06:11:42;8.00;99.90
18670;DHT22;9464;44.918;9.670;2023-03-16T06:14:10;8.00;99.90
18670;DHT22;9464;44.918;9.670;2023-03-16T06:16:38;8.00;99.90
18670;DHT22;9464;44.918;9.670;2023-03-16T06:19:06;8.00;99.90
18670;DHT22;9464;44.918;9.670;2023-03-16T06:21:34;8.00;99.90
18670;DHT22;9464;44.918;9.670;2023-03-16T06:24:03;8.10;99.90
18670;DHT22;9464;44.918;9.670;2023-03-16T06:26:34;8.10;99.90
18670;DHT22;9464;44.918;9.670;2023-03-16T06:29:03;8.10;99.90
18670;DHT22;9464;44.918;9.670;2023-03-16T06:31:31;8.10;99.90
18670;DHT22;9464;44.918;9.670;2023-03-16T06:34:00;8.20;99.90
18670;DHT22;9464;44.918;9.670;2023-03-16T06:36:28;8.20;99.90
18670;DHT22;9464;44.918;9.670;2023-03-16T06:38:56;8.20;99.90
18670;DHT22;9464;44.918;9.670;2023-03-16T06:41:24;8.20;99.90
18670;DHT22;9464;44.918;9.670;2023-03-16T06:43:54;8.30;99.90
18670;DHT22;9464;44.918;9.670;2023-03-16T06:46:23;8.30;99.90
18670;DHT22;9464;44.918;9.670;2023-03-16T06:48:51;8.30;99.90
18670;DHT22;9464;44.918;9.670;2023-03-16T06:51:20;8.40;99.90
18670;DHT22;9464;44.918;9.670;2023-03-16T06:53:48;8.40;99.90
18670;DHT22;9464;44.918;9.670;2023-03-16T06:56:16;8.40;99.90
18670;DHT22;9464;44.918;9.670;2023-03-16T06:58:44;8.40;99.90
18670;DHT22;9464;44.918;9.670;2023-03-16T07:01:14;8.50;99.90
18670;DHT22;9464;44.918;9.670;2023-03-16T07:03:42;8.50;99.90
18670;DHT22;9464;44.918;9.670;2023-03-16T07:06:10;8.50;99.90
18670;DHT22;9464;44.918;9.670;2023-03-16T07:08:39;8.60;99.90
18670;DHT22;9464;44.918;9.670;2023-03-16T07:11:08;8.60;99.90
18670;DHT22;9464;44.918;9.670;2023-03-16T07:13:37;8.60;99.90
18670;DHT22;9464;44.918;9.670;2023-03-16T07:16:05;8.60;99.90
18670;DHT22;9464;44.918;9.670;2023-03-16T07:18:42;8.70;99.90
18670;DHT22;9464;44.918;9.670;2023-03-16T07:21:11;8.70;99.90
18670;DHT22;9464;44.918;9.670;2023-03-16T07:23:40;8.80;99.90
18670;DHT22;9464;44.918;9.670;2023-03-16T07:26:08;8.80;99.90
18670;DHT22;9464;44.918;9.670;2023-03-16T07:28:37;8.90;99.90
18670;DHT22;9464;44.918;9.670;2023-03-16T07:31:06;8.90;99.90
18670;DHT22;9464;44.918;9.670;2023-03-16T07:33:35;8.90;99.90
18670;DHT22;9464;44.918;9.670;2023-03-16T07:36:06;9.00;99.90
18670;DHT22;9464;44.918;9.670;2023-03-16T07:38:36;9.00;99.90
18670;DHT22;9464;44.918;9.670;2023-03-16T07:41:05;9.00;99.90
18670;DHT22;9464;44.918;9.670;2023-03-16T07:43:34;9.10;99.90
18670;DHT22;9464;44.918;9.670;2023-03-16T07:46:02;9.20;99.90
18670;DHT22;9464;44.918;9.670;2023-03-16T07:48:31;9.20;99.90
18670;DHT22;9464;44.918;9.670;2023-03-16T07:50:59;9.20;99.90
18670;DHT22;9464;44.918;9.670;2023-03-16T07:53:29;9.20;99.90
18670;DHT22;9464;44.918;9.670;2023-03-16T07:55:57;9.10;99.90
18670;DHT22;9464;44.918;9.670;2023-03-16T07:58:26;9.10;99.90
18670;DHT22;9464;44.918;9.670;2023-03-16T08:00:55;9.10;99.90
18670;DHT22;9464;44.918;9.670;2023-03-16T08:03:24;9.20;99.90
18670;DHT22;9464;44.918;9.670;2023-03-16T08:05:53;9.20;99.90
18670;DHT22;9464;44.918;9.670;2023-03-16T08:08:22;9.30;99.90
18670;DHT22;9464;44.918;9.670;2023-03-16T08:10:52;9.40;99.90
18670;DHT22;9464;44.918;9.670;2023-03-16T08:13:22;9.40;99.90
18670;DHT22;9464;44.918;9.670;2023-03-16T08:15:52;9.50;99.90
18670;DHT22;9464;44.918;9.670;2023-03-16T08:18:24;9.50;99.90
18670;DHT22;9464;44.918;9.670;2023-03-16T08:20:53;9.60;99.90
18670;DHT22;9464;44.918;9.670;2023-03-16T08:23:22;9.60;99.90
18670;DHT22;9464;44.918;9.670;2023-03-16T08:25:53;9.60;99.90
18670;DHT22;9464;44.918;9.670;2023-03-16T08:28:22;9.70;99.90
18670;DHT22;9464;44.918;9.670;2023-03-16T08:30:52;9.70;99.90
18670;DHT22;9464;44.918;9.670;2023-03-16T08:33:21;9.70;99.90
18670;DHT22;9464;44.918;9.670;2023-03-16T08:35:49;9.70;99.90
18670;DHT22;9464;44.918;9.670;2023-03-16T08:38:18;9.70;99.90
18670;DHT22;9464;44.918;9.670;2023-03-16T08:40:46;9.70;99.90
18670;DHT22;9464;44.918;9.670;2023-03-16T08:43:16;9.80;99.90
18670;DHT22;9464;44.918;9.670;2023-03-16T08:45:45;9.80;99.90
18670;DHT22;9464;44.918;9.670;2023-03-16T08:48:14;9.80;99.90
18670;DHT22;9464;44.918;9.670;2023-03-16T08:50:43;9.90;99.90
18670;DHT22;9464;44.918;9.670;2023-03-16T08:53:13;9.80;99.90
18670;DHT22;9464;44.918;9.670;2023-03-16T08:55:41;9.90;99.90
18670;DHT22;9464;44.918;9.670;2023-03-16T08:58:10;9.90;99.90
18670;DHT22;9464;44.918;9.670;2023-03-16T09:00:41;9.90;99.90
18670;DHT22;9464;44.918;9.670;2023-03-16T09:03:13;9.90;99.90
18670;DHT22;9464;44.918;9.670;2023-03-16T09:05:41;9.90;99.90
18670;DHT22;9464;44.918;9.670;2023-03-16T09:08:09;10.00;99.90
18670;DHT22;9464;44.918;9.670;2023-03-16T09:10:38;10.00;99.90
18670;DHT22;9464;44.918;9.670;2023-03-16T09:13:06;10.10;99.90
18670;DHT22;9464;44.918;9.670;2023-03-16T09:15:35;10.10;99.90
18670;DHT22;9464;44.918;9.670;2023-03-16T09:18:06;10.10;99.90
18670;DHT22;9464;44.918;9.670;2023-03-16T09:20:34;10.10;99.90
18670;DHT22;9464;44.918;9.670;2023-03-16T09:23:03;10.10;99.90
18670;DHT22;9464;44.918;9.670;2023-03-16T09:25:31;10.20;99.90
18670;DHT22;9464;44.918;9.670;2023-03-16T09:27:59;10.20;99.90
18670;DHT22;9464;44.918;9.670;2023-03-16T09:30:28;10.20;99.90
18670;DHT22;9464;44.918;9.670;2023-03-16T09:32:57;10.20;99.90
18670;DHT22;9464;44.918;9.670;2023-03-16T09:35:27;10.30;99.90
18670;DHT22;9464;44.918;9.670;2023-03-16T09:37:56;10.40;99.90
18670;DHT22;9464;44.918;9.670;2023-03-16T09:40:33;10.40;99.90
18670;DHT22;9464;44.918;9.670;2023-03-16T09:43:33;10.40;99.90
18670;DHT22;9464;44.918;9.670;2023-03-16T09:46:08;10.50;99.90
18670;DHT22;9464;44.918;9.670;2023-03-16T09:48:38;10.50;99.90
18670;DHT22;9464;44.918;9.670;2023-03-16T09:51:25;10.50;99.90
18670;DHT22;9464;44.918;9.670;2023-03-16T09:53:59;10.50;99.90
18670;DHT22;9464;44.918;9.670;2023-03-16T09:56:31;10.60;99.90
18670;DHT22;9464;44.918;9.670;2023-03-16T09:59:04;10.60;99.90
18670;DHT22;9464;44.918;9.670;2023-03-16T10:01:42;10.60;99.90
18670;DHT22;9464;44.918;9.670;2023-03-16T10:04:22;10.60;99.90
18670;DHT22;9464;44.918;9.670;2023-03-16T10:07:03;10.60;99.90
18670;DHT22;9464;44.918;9.670;2023-03-16T10:09:34;10.60;99.90
18670;DHT22;9464;44.918;9.670;2023-03-16T10:12:06;10.60;99.90
18670;DHT22;9464;44.918;9.670;2023-03-16T10:14:40;10.60;99.90
18670;DHT22;9464;44.918;9.670;2023-03-16T10:17:15;10.60;99.90
18670;DHT22;9464;44.918;9.670;2023-03-16T10:19:47;10.70;99.90
18670;DHT22;9464;44.918;9.670;2023-03-16T10:22:21;10.70;99.90
18670;DHT22;9464;44.918;9.670;2023-03-16T10:25:00;10.80;99.90
18670;DHT22;9464;44.918;9.670;2023-03-16T10:27:31;10.80;99.90
18670;DHT22;9464;44.918;9.670;2023-03-16T10:30:02;10.80;99.90
18670;DHT22;9464;44.918;9.670;2023-03-16T10:32:32;10.80;99.90
18670;DHT22;9464;44.918;9.670;2023-03-16T10:35:10;10.80;99.90
18670;DHT22;9464;44.918;9.670;2023-03-16T10:37:43;10.80;99.90
18670;DHT22;9464;44.918;9.670;2023-03-16T10:40:12;10.90;99.90
18670;DHT22;9464;44.918;9.670;2023-03-16T10:42:41;10.90;99.90
18670;DHT22;9464;44.918;9.670;2023-03-16T10:45:23;10.90;99.90
18670;DHT22;9464;44.918;9.670;2023-03-16T10:48:03;11.00;99.90
18670;DHT22;9464;44.918;9.670;2023-03-16T10:50:32;11.00;99.90
18670;DHT22;9464;44.918;9.670;2023-03-16T10:53:01;11.00;99.90
18670;DHT22;9464;44.918;9.670;2023-03-16T10:55:31;11.10;99.90
18670;DHT22;9464;44.918;9.670;2023-03-16T10:58:08;11.10;99.90
18670;DHT22;9464;44.918;9.670;2023-03-16T11:00:40;11.10;99.90
18670;DHT22;9464;44.918;9.670;2023-03-16T11:03:20;11.20;99.90
18670;DHT22;9464;44.918;9.670;2023-03-16T11:05:56;11.30;99.90
18670;DHT22;9464;44.918;9.670;2023-03-16T11:08:27;11.30;99.90
18670;DHT22;9464;44.918;9.670;2023-03-16T11:10:59;11.30;99.90
18670;DHT22;9464;44.918;9.670;2023-03-16T11:13:36;11.30;99.90
18670;DHT22;9464;44.918;9.670;2023-03-16T11:16:19;11.40;99.90
18670;DHT22;9464;44.918;9.670;2023-03-16T11:18:51;11.40;99.90
18670;DHT22;9464;44.918;9.670;2023-03-16T11:21:31;11.50;99.90
18670;DHT22;9464;44.918;9.670;2023-03-16T11:24:03;11.60;99.90
18670;DHT22;9464;44.918;9.670;2023-03-16T11:26:34;11.60;99.90
18670;DHT22;9464;44.918;9.670;2023-03-16T11:29:08;11.60;99.90
18670;DHT22;9464;44.918;9.670;2023-03-16T11:31:42;11.70;99.90
18670;DHT22;9464;44.918;9.670;2023-03-16T11:34:17;11.70;99.90
18670;DHT22;9464;44.918;9.670;2023-03-16T11:36:49;11.70;99.90
18670;DHT22;9464;44.918;9.670;2023-03-16T11:39:30;11.70;99.90
18670;DHT22;9464;44.918;9.670;2023-03-16T11:42:13;11.80;99.90
18670;DHT22;9464;44.918;9.670;2023-03-16T11:44:45;11.80;99.90
18670;DHT22;9464;44.918;9.670;2023-03-16T11:47:41;11.80;99.90
18670;DHT22;9464;44.918;9.670;2023-03-16T11:50:12;11.90;99.90
18670;DHT22;9464;44.918;9.670;2023-03-16T11:52:48;11.90;99.90
18670;DHT22;9464;44.918;9.670;2023-03-16T11:55:30;11.90;99.90
18670;DHT22;9464;44.918;9.670;2023-03-16T11:58:09;12.00;99.90
18670;DHT22;9464;44.918;9.670;2023-03-16T12:00:49;12.00;99.90
18670;DHT22;9464;44.918;9.670;2023-03-16T12:03:33;12.10;99.90
18670;DHT22;9464;44.918;9.670;2023-03-16T12:06:13;12.10;99.90
18670;DHT22;9464;44.918;9.670;2023-03-16T12:09:06;12.10;99.90
18670;DHT22;9464;44.918;9.670;2023-03-16T12:11:45;12.20;99.90
18670;DHT22;9464;44.918;9.670;2023-03-16T12:14:19;12.30;99.90
18670;DHT22;9464;44.918;9.670;2023-03-16T12:16:53;12.30;99.90
18670;DHT22;9464;44.918;9.670;2023-03-16T12:19:33;12.30;99.90
18670;DHT22;9464;44.918;9.670;2023-03-16T12:22:13;12.40;99.90
18670;DHT22;9464;44.918;9.670;2023-03-16T12:24:45;12.40;99.90
18670;DHT22;9464;44.918;9.670;2023-03-16T12:27:19;12.40;99.90
18670;DHT22;9464;44.918;9.670;2023-03-16T12:29:58;12.40;99.90
18670;DHT22;9464;44.918;9.670;2023-03-16T12:32:37;12.50;99.90
18670;DHT22;9464;44.918;9.670;2023-03-16T12:35:19;12.50;99.90
18670;DHT22;9464;44.918;9.670;2023-03-16T12:38:00;12.50;99.90
18670;DHT22;9464;44.918;9.670;2023-03-16T12:40:33;12.50;99.90
18670;DHT22;9464;44.918;9.670;2023-03-16T12:43:23;12.60;99.90
18670;DHT22;9464;44.918;9.670;2023-03-16T12:46:02;12.70;99.90
18670;DHT22;9464;44.918;9.670;2023-03-16T12:48:38;12.70;99.90
18670;DHT22;9464;44.918;9.670;2023-03-16T12:51:07;12.70;99.90
18670;DHT22;9464;44.918;9.670;2023-03-16T12:53:44;12.80;99.90
18670;DHT22;9464;44.918;9.670;2023-03-16T12:56:14;12.80;99.90
18670;DHT22;9464;44.918;9.670;2023-03-16T12:58:47;12.80;99.90
18670;DHT22;9464;44.918;9.670;2023-03-16T13:01:17;12.80;99.90
18670;DHT22;9464;44.918;9.670;2023-03-16T13:03:48;12.80;99.90
18670;DHT22;9464;44.918;9.670;2023-03-16T13:06:20;12.80;99.90
18670;DHT22;9464;44.918;9.670;2023-03-16T13:08:52;12.90;99.90
18670;DHT22;9464;44.918;9.670;2023-03-16T13:11:22;12.90;99.90
18670;DHT22;9464;44.918;9.670;2023-03-16T13:14:04;12.90;99.90
18670;DHT22;9464;44.918;9.670;2023-03-16T13:16:36;13.00;99.90
18670;DHT22;9464;44.918;9.670;2023-03-16T13:19:21;13.00;99.90
18670;DHT22;9464;44.918;9.670;2023-03-16T13:22:00;13.00;99.90
18670;DHT22;9464;44.918;9.670;2023-03-16T13:24:39;13.00;99.90
18670;DHT22;9464;44.918;9.670;2023-03-16T13:27:19;13.10;99.90
18670;DHT22;9464;44.918;9.670;2023-03-16T13:29:55;13.10;99.90
18670;DHT22;9464;44.918;9.670;2023-03-16T13:32:26;13.20;99.90
18670;DHT22;9464;44.918;9.670;2023-03-16T13:34:58;13.20;99.90
18670;DHT22;9464;44.918;9.670;2023-03-16T13:37:29;13.10;99.90
18670;DHT22;9464;44.918;9.670;2023-03-16T13:39:58;13.10;99.90
18670;DHT22;9464;44.918;9.670;2023-03-16T13:42:28;13.20;99.90
18670;DHT22;9464;44.918;9.670;2023-03-16T13:45:09;13.20;99.90
18670;DHT22;9464;44.918;9.670;2023-03-16T13:47:41;13.20;99.90
18670;DHT22;9464;44.918;9.670;2023-03-16T13:50:11;13.20;99.90
18670;DHT22;9464;44.918;9.670;2023-03-16T13:52:39;13.20;99.90
18670;DHT22;9464;44.918;9.670;2023-03-16T13:55:14;13.30;99.90
18670;DHT22;9464;44.918;9.670;2023-03-16T13:57:44;13.30;99.90
18670;DHT22;9464;44.918;9.670;2023-03-16T14:00:17;13.30;99.90
18670;DHT22;9464;44.918;9.670;2023-03-16T14:02:49;13.30;99.90
18670;DHT22;9464;44.918;9.670;2023-03-16T14:05:21;13.30;99.90
18670;DHT22;9464;44.918;9.670;2023-03-16T14:07:51;13.40;99.90
18670;DHT22;9464;44.918;9.670;2023-03-16T14:10:20;13.40;99.90
18670;DHT22;9464;44.918;9.670;2023-03-16T14:12:50;13.40;99.90
18670;DHT22;9464;44.918;9.670;2023-03-16T14:15:21;13.40;99.90
18670;DHT22;9464;44.918;9.670;2023-03-16T14:17:52;13.40;99.90
18670;DHT22;9464;44.918;9.670;2023-03-16T14:20:23;13.40;99.90
18670;DHT22;9464;44.918;9.670;2023-03-16T14:22:52;13.40;99.90
18670;DHT22;9464;44.918;9.670;2023-03-16T14:25:23;13.40;99.90
18670;DHT22;9464;44.918;9.670;2023-03-16T14:27:57;13.40;99.90
18670;DHT22;9464;44.918;9.670;2023-03-16T14:30:28;13.40;99.90
18670;DHT22;9464;44.918;9.670;2023-03-16T14:32:59;13.40;99.90
18670;DHT22;9464;44.918;9.670;2023-03-16T14:35:29;13.40;99.90
18670;DHT22;9464;44.918;9.670;2023-03-16T14:38:19;13.40;99.90
18670;DHT22;9464;44.918;9.670;2023-03-16T14:40:53;13.40;99.90
18670;DHT22;9464;44.918;9.670;2023-03-16T14:43:28;13.40;99.90
18670;DHT22;9464;44.918;9.670;2023-03-16T14:45:58;13.40;99.90
18670;DHT22;9464;44.918;9.670;2023-03-16T14:48:27;13.40;99.90
18670;DHT22;9464;44.918;9.670;2023-03-16T14:50:58;13.40;99.90
18670;DHT22;9464;44.918;9.670;2023-03-16T14:53:27;13.50;99.90
18670;DHT22;9464;44.918;9.670;2023-03-16T14:55:55;13.50;99.90
18670;DHT22;9464;44.918;9.670;2023-03-16T14:58:24;13.50;99.90
18670;DHT22;9464;44.918;9.670;2023-03-16T15:00:53;13.50;99.90
18670;DHT22;9464;44.918;9.670;2023-03-16T15:03:29;13.50;99.90
18670;DHT22;9464;44.918;9.670;2023-03-16T15:05:59;13.50;99.90
18670;DHT22;9464;44.918;9.670;2023-03-16T15:08:29;13.50;99.90
18670;DHT22;9464;44.918;9.670;2023-03-16T15:11:01;13.50;99.90
18670;DHT22;9464;44.918;9.670;2023-03-16T15:13:30;13.60;99.90
18670;DHT22;9464;44.918;9.670;2023-03-16T15:16:19;13.60;99.90
18670;DHT22;9464;44.918;9.670;2023-03-16T15:18:50;13.60;99.90
18670;DHT22;9464;44.918;9.670;2023-03-16T15:21:20;13.60;99.90
18670;DHT22;9464;44.918;9.670;2023-03-16T15:23:52;13.60;99.90
18670;DHT22;9464;44.918;9.670;2023-03-16T15:26:26;13.60;99.90
18670;DHT22;9464;44.918;9.670;2023-03-16T15:28:55;13.60;99.90
18670;DHT22;9464;44.918;9.670;2023-03-16T15:31:24;13.60;99.90
18670;DHT22;9464;44.918;9.670;2023-03-16T15:33:54;13.60;99.90
18670;DHT22;9464;44.918;9.670;2023-03-16T15:36:22;13.60;99.90
18670;DHT22;9464;44.918;9.670;2023-03-16T15:38:52;13.60;99.90
18670;DHT22;9464;44.918;9.670;2023-03-16T15:41:22;13.60;99.90
18670;DHT22;9464;44.918;9.670;2023-03-16T15:43:56;13.60;99.90
18670;DHT22;9464;44.918;9.670;2023-03-16T15:46:26;13.50;99.90
18670;DHT22;9464;44.918;9.670;2023-03-16T15:48:56;13.50;99.90
18670;DHT22;9464;44.918;9.670;2023-03-16T15:51:26;13.50;99.90
18670;DHT22;9464;44.918;9.670;2023-03-16T15:53:56;13.50;99.90
18670;DHT22;9464;44.918;9.670;2023-03-16T15:56:28;13.60;99.90
18670;DHT22;9464;44.918;9.670;2023-03-16T15:59:01;13.60;99.90
18670;DHT22;9464;44.918;9.670;2023-03-16T16:01:38;13.60;1.00
18670;DHT22;9464;44.918;9.670;2023-03-16T16:04:14;13.60;99.90
18670;DHT22;9464;44.918;9.670;2023-03-16T16:06:43;13.50;99.90
18670;DHT22;9464;44.918;9.670;2023-03-16T16:09:12;13.50;99.90
18670;DHT22;9464;44.918;9.670;2023-03-16T16:11:41;13.50;99.90
18670;DHT22;9464;44.918;9.670;2023-03-16T16:14:11;13.50;99.90
18670;DHT22;9464;44.918;9.670;2023-03-16T16:16:43;13.50;99.90
18670;DHT22;9464;44.918;9.670;2023-03-16T16:19:14;13.50;99.90
18670;DHT22;9464;44.918;9.670;2023-03-16T16:21:42;13.40;99.90